createdAt,value
2023-12-26T00:02:29.348Z,8.60
2023-12-26T00:05:31.441Z,9.23
2023-12-26T00:08:33.603Z,8.88
2023-12-26T00:11:41.768Z,9.07
2023-12-26T00:14:44.246Z,8.75
2023-12-26T00:17:46.436Z,9.23
2023-12-26T00:20:48.561Z,8.43
2023-12-26T00:23:51.016Z,9.70
2023-12-26T00:26:53.188Z,10.07
2023-12-26T00:29:55.326Z,8.27
2023-12-26T00:32:57.882Z,9.13
2023-12-26T00:36:01.166Z,7.45
2023-12-26T00:39:04.069Z,7.97
2023-12-26T00:42:07.082Z,8.50
2023-12-26T00:45:10.325Z,7.53
2023-12-26T00:48:12.932Z,8.60
2023-12-26T00:51:15.256Z,8.35
2023-12-26T00:54:18.290Z,7.77
2023-12-26T00:57:20.465Z,8.52
2023-12-26T01:00:23.996Z,8.05
2023-12-26T01:03:26.537Z,7.07
2023-12-26T01:06:29.704Z,8.23
2023-12-26T01:09:31.875Z,8.35
2023-12-26T01:12:34.956Z,8.73
2023-12-26T01:15:37.625Z,8.33
2023-12-26T01:18:39.925Z,7.97
2023-12-26T01:21:42.281Z,8.02
2023-12-26T01:24:45.271Z,8.43
2023-12-26T01:27:49.175Z,8.60
2023-12-26T01:30:51.836Z,8.40
2023-12-26T01:33:55.236Z,8.27
2023-12-26T01:36:57.330Z,8.00
2023-12-26T01:39:59.651Z,8.18
2023-12-26T01:43:03.046Z,8.50
2023-12-26T01:46:05.229Z,7.47
2023-12-26T01:49:07.441Z,7.57
2023-12-26T01:52:09.773Z,6.90
2023-12-26T01:55:15.242Z,7.82
2023-12-26T01:58:17.421Z,6.60
2023-12-26T02:01:19.505Z,6.93
2023-12-26T02:04:21.794Z,6.70
2023-12-26T02:07:24.247Z,6.70
2023-12-26T02:10:28.331Z,6.97
2023-12-26T02:13:32.587Z,6.70
2023-12-26T02:16:36.298Z,6.38
2023-12-26T02:19:43.494Z,6.60
2023-12-26T02:22:46.868Z,6.93
2023-12-26T02:25:48.975Z,6.15
2023-12-26T02:28:51.128Z,6.43
2023-12-26T02:31:53.675Z,6.45
2023-12-26T02:34:57.112Z,6.47
2023-12-26T02:37:59.211Z,6.97
2023-12-26T02:41:01.686Z,5.78
2023-12-26T02:44:04.932Z,6.22
2023-12-26T02:47:07.544Z,5.60
2023-12-26T02:50:09.778Z,6.32
2023-12-26T02:53:11.798Z,7.47
2023-12-26T02:56:14.996Z,6.22
2023-12-26T02:59:17.788Z,6.87
2023-12-26T03:02:20.448Z,6.95
2023-12-26T03:05:22.650Z,6.15
2023-12-26T03:08:25.265Z,7.80
2023-12-26T03:11:28.380Z,6.80
2023-12-26T03:14:31.985Z,6.22
2023-12-26T03:17:40.809Z,6.97
2023-12-26T03:20:43.196Z,7.55
2023-12-26T03:23:45.682Z,6.75
2023-12-26T03:26:47.819Z,6.40
2023-12-26T03:29:49.896Z,6.10
2023-12-26T03:32:52.606Z,6.53
2023-12-26T03:35:54.908Z,6.72
2023-12-26T03:38:56.984Z,7.17
2023-12-26T03:42:03.098Z,6.70
2023-12-26T03:45:05.917Z,6.60
2023-12-26T03:48:08.927Z,6.03
2023-12-26T03:51:11.093Z,6.50
2023-12-26T03:54:14.107Z,6.35
2023-12-26T03:57:16.327Z,7.68
2023-12-26T04:00:18.552Z,6.37
2023-12-26T04:03:21.184Z,6.90
2023-12-26T04:06:23.650Z,7.53
2023-12-26T04:09:25.884Z,7.13
2023-12-26T04:12:30.129Z,7.43
2023-12-26T04:15:32.197Z,6.55
2023-12-26T04:18:34.921Z,6.78
2023-12-26T04:21:37.514Z,7.60
2023-12-26T04:24:39.716Z,7.22
2023-12-26T04:27:42.958Z,6.72
2023-12-26T04:30:46.579Z,6.67
2023-12-26T04:33:49.184Z,6.47
2023-12-26T04:36:51.492Z,5.85
2023-12-26T04:39:53.749Z,5.70
2023-12-26T04:42:56.333Z,6.03
2023-12-26T04:45:58.937Z,6.18
2023-12-26T04:49:01.235Z,6.22
2023-12-26T04:52:03.644Z,5.15
2023-12-26T04:55:06.112Z,5.78
2023-12-26T04:58:09.536Z,6.45
2023-12-26T05:01:13.681Z,5.57
2023-12-26T05:04:17.005Z,6.22
2023-12-26T05:07:19.471Z,5.90
2023-12-26T05:10:21.636Z,5.97
2023-12-26T05:13:24.477Z,6.00
2023-12-26T05:16:26.812Z,6.38
2023-12-26T05:19:29.079Z,5.32
2023-12-26T05:22:31.798Z,5.65
2023-12-26T05:25:33.971Z,6.25
2023-12-26T05:28:37.709Z,6.45
2023-12-26T05:31:39.851Z,5.07
2023-12-26T05:34:45.205Z,5.20
2023-12-26T05:37:47.224Z,5.65
2023-12-26T05:40:49.267Z,5.57
2023-12-26T05:43:51.239Z,5.60
2023-12-26T05:46:53.312Z,4.75
2023-12-26T05:49:59.149Z,5.28
2023-12-26T05:53:02.324Z,5.88
2023-12-26T05:56:04.788Z,5.60
2023-12-26T05:59:08.237Z,5.60
2023-12-26T06:02:13.403Z,5.17
2023-12-26T06:05:15.525Z,4.68
2023-12-26T06:08:18.384Z,5.53
2023-12-26T06:11:20.581Z,5.40
2023-12-26T06:14:25.626Z,5.07
2023-12-26T06:17:28.386Z,5.63
2023-12-26T06:20:31.482Z,5.78
2023-12-26T06:23:33.972Z,6.30
2023-12-26T06:26:36.140Z,6.20
2023-12-26T06:29:38.150Z,5.70
2023-12-26T06:32:40.483Z,5.57
2023-12-26T06:35:43.722Z,6.20
2023-12-26T06:38:46.073Z,5.38
2023-12-26T06:41:48.174Z,6.40
2023-12-26T06:44:50.580Z,4.90
2023-12-26T06:47:52.849Z,5.28
2023-12-26T06:50:55.128Z,6.00
2023-12-26T06:53:57.644Z,5.90
2023-12-26T06:57:06.876Z,7.35
2023-12-26T07:00:10.043Z,8.05
2023-12-26T07:03:12.717Z,8.40
2023-12-26T07:06:15.165Z,7.85
2023-12-26T07:09:18.121Z,7.82
2023-12-26T07:12:20.860Z,7.73
2023-12-26T07:15:23.622Z,8.02
2023-12-26T07:18:26.951Z,7.47
2023-12-26T07:21:29.313Z,6.75
2023-12-26T07:24:31.491Z,6.78
2023-12-26T07:27:33.553Z,5.75
2023-12-26T07:30:36.362Z,5.43
2023-12-26T07:33:40.856Z,5.77
2023-12-26T07:36:43.012Z,6.20
2023-12-26T07:39:45.147Z,5.70
2023-12-26T07:42:47.620Z,7.33
2023-12-26T07:45:49.594Z,6.13
2023-12-26T07:48:52.154Z,6.38
2023-12-26T07:51:54.389Z,5.57
2023-12-26T07:54:56.535Z,5.47
2023-12-26T07:57:58.526Z,5.47
2023-12-26T08:01:00.697Z,5.03
2023-12-26T08:04:03.465Z,6.23
2023-12-26T08:07:09.269Z,5.35
2023-12-26T08:10:11.814Z,5.55
2023-12-26T08:13:14.629Z,6.90
2023-12-26T08:16:18.287Z,6.38
2023-12-26T08:19:21.570Z,6.07
2023-12-26T08:22:24.381Z,5.50
2023-12-26T08:25:26.462Z,5.57
2023-12-26T08:28:28.517Z,4.32
2023-12-26T08:31:30.759Z,5.55
2023-12-26T08:34:33.197Z,5.50
2023-12-26T08:37:35.358Z,4.85
2023-12-26T08:40:37.325Z,5.13
2023-12-26T08:43:39.920Z,5.40
2023-12-26T08:46:43.496Z,4.95
2023-12-26T08:49:45.577Z,5.93
2023-12-26T08:52:47.924Z,5.35
2023-12-26T08:55:50.058Z,6.32
2023-12-26T08:58:52.201Z,5.53
2023-12-26T09:01:54.405Z,5.68
2023-12-26T09:04:56.450Z,5.63
2023-12-26T09:07:58.472Z,5.95
2023-12-26T09:11:01.951Z,6.07
2023-12-26T09:14:05.225Z,6.63
2023-12-26T09:17:07.411Z,6.32
2023-12-26T09:20:11.068Z,7.18
2023-12-26T09:23:13.710Z,5.93
2023-12-26T09:26:19.537Z,5.60
2023-12-26T09:29:21.578Z,5.80
2023-12-26T09:32:23.617Z,7.55
2023-12-26T09:35:25.741Z,5.40
2023-12-26T09:38:27.857Z,5.22
2023-12-26T09:41:30.392Z,5.40
2023-12-26T09:44:32.452Z,5.20
2023-12-26T09:47:34.540Z,5.65
2023-12-26T09:50:37.688Z,6.00
2023-12-26T09:53:40.185Z,5.32
2023-12-26T09:56:42.410Z,6.07
2023-12-26T09:59:44.656Z,5.88
2023-12-26T10:02:47.501Z,5.72
2023-12-26T10:05:55.238Z,5.00
2023-12-26T10:08:58.965Z,5.82
2023-12-26T10:12:01.104Z,5.65
2023-12-26T10:15:06.666Z,5.10
2023-12-26T10:18:09.240Z,5.82
2023-12-26T10:21:11.589Z,6.05
2023-12-26T10:24:14.185Z,6.13
2023-12-26T10:27:16.758Z,5.47
2023-12-26T10:30:19.580Z,6.40
2023-12-26T10:33:28.898Z,5.90
2023-12-26T10:36:31.013Z,6.67
2023-12-26T10:39:33.131Z,6.47
2023-12-26T10:42:40.753Z,6.60
2023-12-26T10:45:42.985Z,7.45
2023-12-26T10:48:45.244Z,7.13
2023-12-26T10:51:48.364Z,6.75
2023-12-26T10:54:51.227Z,6.40
2023-12-26T10:57:53.397Z,6.97
2023-12-26T11:01:34.019Z,5.80
2023-12-26T11:05:32.929Z,7.05
2023-12-26T11:09:31.687Z,6.10
2023-12-26T11:13:30.032Z,5.70
2023-12-26T11:17:28.983Z,6.47
2023-12-26T11:21:27.427Z,6.60
2023-12-26T11:25:25.976Z,7.17
2023-12-26T11:29:25.747Z,6.82
2023-12-26T11:33:24.167Z,6.68
2023-12-26T11:37:22.242Z,6.95
2023-12-26T11:41:39.902Z,7.30
2023-12-26T11:45:41.188Z,7.05
2023-12-26T11:49:40.975Z,7.57
2023-12-26T11:53:39.141Z,7.72
2023-12-26T11:57:37.867Z,7.70
2023-12-26T12:01:37.950Z,6.90
2023-12-26T12:05:36.892Z,7.25
2023-12-26T12:09:35.293Z,7.23
2023-12-26T12:13:36.863Z,7.22
2023-12-26T12:17:37.734Z,6.68
2023-12-26T12:21:36.904Z,6.32
2023-12-26T12:25:36.811Z,6.43
2023-12-26T12:29:34.841Z,6.63
2023-12-26T12:33:33.394Z,6.82
2023-12-26T12:37:33.876Z,5.85
2023-12-26T12:41:32.882Z,4.93
2023-12-26T12:45:31.333Z,5.03
2023-12-26T12:49:29.821Z,5.30
2023-12-26T12:53:29.861Z,5.32
2023-12-26T12:57:28.096Z,5.38
2023-12-26T13:01:27.877Z,4.45
2023-12-26T13:05:27.834Z,4.73
2023-12-26T13:09:39.762Z,5.17
2023-12-26T13:13:39.769Z,5.13
2023-12-26T13:17:38.766Z,4.82
2023-12-26T13:21:36.809Z,4.85
2023-12-26T13:25:35.077Z,5.00
2023-12-26T13:29:36.487Z,5.13
2023-12-26T13:33:35.923Z,4.70
2023-12-26T13:37:33.779Z,4.80
2023-12-26T13:41:34.625Z,5.38
2023-12-26T13:45:34.711Z,5.20
2023-12-26T13:49:33.071Z,4.60
2023-12-26T13:53:12.355Z,5.57
2023-12-26T13:56:34.304Z,4.90
2023-12-26T13:59:36.910Z,5.07
2023-12-26T14:02:40.378Z,5.70
2023-12-26T14:05:42.501Z,4.80
2023-12-26T14:08:45.963Z,5.18
2023-12-26T14:11:48.596Z,5.35
2023-12-26T14:14:50.752Z,4.95
2023-12-26T14:18:12.122Z,4.13
2023-12-26T14:21:33.594Z,4.10
2023-12-26T14:24:36.283Z,4.93
2023-12-26T14:27:38.969Z,4.40
2023-12-26T14:30:43.169Z,4.73
2023-12-26T14:33:46.169Z,4.13
2023-12-26T14:36:48.384Z,4.43
2023-12-26T14:40:09.271Z,3.03
2023-12-26T14:43:30.097Z,3.03
2023-12-26T14:46:32.372Z,1.83
2023-12-26T14:49:36.507Z,1.20
2023-12-26T14:52:39.190Z,1.00
2023-12-26T14:55:41.245Z,0.80
2023-12-26T14:59:02.815Z,0.82
2023-12-26T15:02:05.114Z,0.65
2023-12-26T15:05:07.523Z,1.02
2023-12-26T15:08:10.003Z,1.10
2023-12-26T15:11:16.070Z,1.17
2023-12-26T15:14:32.117Z,1.02
2023-12-26T15:17:41.370Z,1.02
2023-12-26T15:20:44.994Z,1.17
2023-12-26T15:23:50.564Z,1.60
2023-12-26T15:26:52.733Z,0.80
2023-12-26T15:29:55.146Z,1.27
2023-12-26T15:32:59.262Z,1.02
2023-12-26T15:36:01.558Z,1.05
2023-12-26T15:39:03.826Z,1.02
2023-12-26T15:42:06.052Z,1.40
2023-12-26T15:45:09.956Z,2.08
2023-12-26T15:48:13.106Z,1.85
2023-12-26T15:51:19.289Z,1.55
2023-12-26T15:54:21.420Z,1.60
2023-12-26T15:57:23.932Z,1.90
2023-12-26T16:00:27.111Z,1.70
2023-12-26T16:03:29.465Z,1.20
2023-12-26T16:06:31.985Z,1.33
2023-12-26T16:09:34.243Z,1.45
2023-12-26T16:12:36.697Z,1.58
2023-12-26T16:15:39.027Z,1.20
2023-12-26T16:18:42.290Z,1.65
2023-12-26T16:21:45.465Z,1.05
2023-12-26T16:24:47.980Z,1.40
2023-12-26T16:27:50.945Z,1.33
2023-12-26T16:30:54.822Z,1.30
2023-12-26T16:33:57.084Z,1.45
2023-12-26T16:36:59.331Z,1.57
2023-12-26T16:40:01.979Z,1.20
2023-12-26T16:43:04.239Z,1.00
2023-12-26T16:46:06.922Z,1.20
2023-12-26T16:49:09.123Z,1.00
2023-12-26T16:52:11.607Z,1.27
2023-12-26T16:55:13.757Z,1.30
2023-12-26T16:58:16.187Z,1.60
2023-12-26T17:01:18.271Z,1.57
2023-12-26T17:04:20.627Z,1.00
2023-12-26T17:07:23.821Z,1.50
2023-12-26T17:10:26.672Z,1.52
2023-12-26T17:13:28.800Z,1.40
2023-12-26T17:16:30.955Z,1.50
2023-12-26T17:19:33.651Z,1.42
2023-12-26T17:22:36.211Z,1.43
2023-12-26T17:25:43.489Z,1.30
2023-12-26T17:28:45.761Z,1.50
2023-12-26T17:31:54.523Z,1.10
2023-12-26T17:34:57.965Z,1.10
2023-12-26T17:38:00.526Z,1.35
2023-12-26T17:41:02.886Z,1.10
2023-12-26T17:44:05.894Z,1.27
2023-12-26T17:47:08.068Z,1.10
2023-12-26T17:50:10.600Z,1.45
2023-12-26T17:53:12.888Z,1.50
2023-12-26T17:56:19.543Z,1.10
2023-12-26T17:59:22.162Z,1.20
2023-12-26T18:02:25.759Z,1.27
2023-12-26T18:05:27.843Z,1.20
2023-12-26T18:08:30.867Z,1.10
2023-12-26T18:11:34.078Z,1.73
2023-12-26T18:14:36.579Z,2.28
2023-12-26T18:17:39.055Z,2.00
2023-12-26T18:20:41.920Z,1.48
2023-12-26T18:23:44.473Z,1.65
2023-12-26T18:26:46.554Z,1.55
2023-12-26T18:29:49.162Z,1.80
2023-12-26T18:32:51.744Z,1.67
2023-12-26T18:35:54.432Z,1.63
2023-12-26T18:38:56.656Z,1.45
2023-12-26T18:41:59.755Z,1.60
2023-12-26T18:45:02.083Z,1.60
2023-12-26T18:48:04.724Z,1.35
2023-12-26T18:51:07.283Z,1.40
2023-12-26T18:54:09.461Z,1.65
2023-12-26T18:57:12.028Z,1.73
2023-12-26T19:00:15.761Z,1.70
2023-12-26T19:03:18.072Z,1.70
2023-12-26T19:06:20.649Z,2.42
2023-12-26T19:09:22.824Z,2.40
2023-12-26T19:12:25.458Z,3.30
2023-12-26T19:15:28.427Z,3.03
2023-12-26T19:18:31.458Z,2.90
2023-12-26T19:21:33.691Z,2.70
2023-12-26T19:24:37.532Z,2.75
2023-12-26T19:27:39.574Z,3.13
2023-12-26T19:30:42.435Z,2.63
2023-12-26T19:33:45.591Z,2.67
2023-12-26T19:36:47.729Z,2.65
2023-12-26T19:39:50.328Z,2.80
2023-12-26T19:42:52.700Z,3.17
2023-12-26T19:45:55.111Z,3.47
2023-12-26T19:48:58.205Z,3.97
2023-12-26T19:52:00.404Z,2.50
2023-12-26T19:55:02.970Z,2.95
2023-12-26T19:58:06.675Z,2.65
2023-12-26T20:01:08.862Z,2.50
2023-12-26T20:04:11.452Z,2.20
2023-12-26T20:07:15.117Z,1.90
2023-12-26T20:10:17.308Z,1.98
2023-12-26T20:13:19.627Z,1.75
2023-12-26T20:16:22.188Z,1.77
2023-12-26T20:19:25.837Z,1.92
2023-12-26T20:22:28.378Z,1.60
2023-12-26T20:25:30.836Z,2.25
2023-12-26T20:28:32.995Z,1.53
2023-12-26T20:31:35.080Z,1.80
2023-12-26T20:34:38.257Z,1.05
2023-12-26T20:37:40.507Z,1.90
2023-12-26T20:40:42.866Z,1.50
2023-12-26T20:43:46.699Z,1.38
2023-12-26T20:46:49.266Z,1.52
2023-12-26T20:49:51.816Z,1.40
2023-12-26T20:52:55.864Z,1.55
2023-12-26T20:55:57.987Z,1.55
2023-12-26T20:59:01.017Z,1.30
2023-12-26T21:02:03.035Z,1.38
2023-12-26T21:05:05.221Z,1.33
2023-12-26T21:08:08.428Z,1.60
2023-12-26T21:11:11.091Z,1.30
2023-12-26T21:14:16.265Z,1.92
2023-12-26T21:17:18.444Z,1.63
2023-12-26T21:20:20.490Z,1.23
2023-12-26T21:23:23.554Z,1.63
2023-12-26T21:26:25.778Z,1.15
2023-12-26T21:29:28.671Z,1.53
2023-12-26T21:32:30.834Z,1.48
2023-12-26T21:35:32.979Z,1.08
2023-12-26T21:38:35.438Z,1.00
2023-12-26T21:41:40.907Z,1.13
2023-12-26T21:44:46.399Z,1.27
2023-12-26T21:47:50.562Z,0.73
2023-12-26T21:50:53.116Z,1.27
2023-12-26T21:53:55.531Z,1.33
2023-12-26T21:56:57.736Z,0.95
2023-12-26T22:00:02.081Z,0.97
2023-12-26T22:03:07.294Z,1.08
2023-12-26T22:06:09.566Z,1.20
2023-12-26T22:09:12.201Z,0.73
2023-12-26T22:12:17.848Z,1.10
2023-12-26T22:15:23.910Z,1.48
2023-12-26T22:18:27.152Z,0.90
2023-12-26T22:21:29.318Z,1.03
2023-12-26T22:24:31.402Z,1.00
2023-12-26T22:27:33.753Z,1.17
2023-12-26T22:30:36.593Z,1.10
2023-12-26T22:33:39.971Z,0.75
2023-12-26T22:36:42.262Z,0.90
2023-12-26T22:39:44.319Z,0.63
2023-12-26T22:42:46.485Z,0.90
2023-12-26T22:45:48.475Z,0.73
2023-12-26T22:48:51.508Z,0.90
2023-12-26T22:51:53.513Z,0.93
2023-12-26T22:54:55.492Z,0.50
2023-12-26T22:57:58.791Z,0.85
2023-12-26T23:01:00.994Z,0.80
2023-12-26T23:04:03.066Z,0.90
2023-12-26T23:07:05.288Z,0.68
2023-12-26T23:10:08.524Z,0.80
2023-12-26T23:13:12.744Z,0.83
2023-12-26T23:16:15.545Z,0.60
2023-12-26T23:19:18.368Z,0.43
2023-12-26T23:22:20.587Z,0.90
2023-12-26T23:25:22.567Z,0.55
2023-12-26T23:28:24.611Z,0.70
2023-12-26T23:31:30.092Z,0.80
2023-12-26T23:34:43.820Z,0.90
2023-12-26T23:37:51.349Z,0.98
2023-12-26T23:40:53.801Z,0.80
2023-12-26T23:43:57.038Z,0.80
2023-12-26T23:46:59.479Z,0.70
2023-12-26T23:50:02.024Z,0.90
2023-12-26T23:53:05.330Z,0.83
2023-12-26T23:56:08.102Z,0.88
2023-12-26T23:59:10.209Z,0.98
